createdAt,value
2019-04-14T00:02:40.775Z,24.77
2019-04-14T00:05:14.687Z,25.32
2019-04-14T00:07:44.934Z,24.12
2019-04-14T00:10:16.104Z,23.12
2019-04-14T00:12:46.938Z,23.07
2019-04-14T00:15:25.901Z,24.67
2019-04-14T00:17:48.129Z,22.07
2019-04-14T00:20:18.593Z,24.15
2019-04-14T00:22:49.057Z,23.65
2019-04-14T00:25:19.478Z,24.18
2019-04-14T00:27:50.000Z,24.60
2019-04-14T00:30:21.206Z,24.23
2019-04-14T00:32:55.167Z,24.10
2019-04-14T00:35:36.927Z,24.07
2019-04-14T00:38:28.242Z,25.00
2019-04-14T00:41:09.395Z,26.48
2019-04-14T00:43:47.097Z,24.40
2019-04-14T00:46:23.953Z,24.65
2019-04-14T00:48:53.967Z,23.83
2019-04-14T00:51:24.502Z,25.35
2019-04-14T00:53:54.154Z,27.37
2019-04-14T00:56:23.754Z,26.27
2019-04-14T00:58:53.921Z,25.02
2019-04-14T01:01:24.376Z,25.85
2019-04-14T01:03:54.763Z,26.80
2019-04-14T01:06:25.080Z,25.48
2019-04-14T01:08:55.425Z,25.95
2019-04-14T01:11:25.051Z,23.65
2019-04-14T01:13:55.076Z,26.40
2019-04-14T01:16:25.400Z,23.40
2019-04-14T01:18:56.465Z,25.32
2019-04-14T01:21:26.362Z,25.48
2019-04-14T01:23:56.611Z,24.25
2019-04-14T01:26:26.739Z,25.05
2019-04-14T01:28:56.806Z,27.17
2019-04-14T01:31:27.357Z,26.87
2019-04-14T01:33:57.615Z,26.15
2019-04-14T01:36:27.717Z,26.12
2019-04-14T01:38:58.161Z,27.85
2019-04-14T01:41:28.224Z,25.82
2019-04-14T01:43:58.247Z,28.30
2019-04-14T01:46:31.111Z,24.98
2019-04-14T01:49:00.624Z,25.62
2019-04-14T01:51:39.585Z,27.85
2019-04-14T01:54:21.322Z,27.37
2019-04-14T01:57:13.208Z,27.82
2019-04-14T01:59:43.803Z,28.15
2019-04-14T02:02:16.283Z,27.20
2019-04-14T02:04:46.453Z,28.40
2019-04-14T02:07:16.639Z,25.17
2019-04-14T02:09:46.879Z,26.87
2019-04-14T02:12:17.024Z,26.37
2019-04-14T02:14:47.398Z,24.77
2019-04-14T02:17:17.785Z,27.90
2019-04-14T02:19:48.104Z,27.20
2019-04-14T02:22:18.155Z,25.27
2019-04-14T02:24:48.169Z,25.20
2019-04-14T02:27:18.829Z,26.35
2019-04-14T02:29:49.500Z,25.50
2019-04-14T02:32:49.510Z,27.85
2019-04-14T02:37:58.565Z,25.25
2019-04-14T02:43:06.914Z,26.15
2019-04-14T02:45:33.184Z,26.12
2019-04-14T02:48:16.712Z,27.15
2019-04-14T02:53:01.880Z,26.33
2019-04-14T02:55:21.615Z,26.12
2019-04-14T02:58:04.426Z,26.45
2019-04-14T03:00:31.804Z,24.40
2019-04-14T03:02:56.294Z,26.82
2019-04-14T03:05:34.267Z,23.67
2019-04-14T03:10:39.862Z,23.85
2019-04-14T03:13:13.102Z,25.77
2019-04-14T03:15:43.867Z,24.07
2019-04-14T03:21:54.019Z,23.95
2019-04-14T03:24:12.798Z,24.80
2019-04-14T03:27:24.954Z,24.80
2019-04-14T03:42:22.918Z,26.50
2019-04-14T03:44:48.649Z,27.20
2019-04-14T03:47:22.095Z,25.02
2019-04-14T03:49:48.453Z,25.32
2019-04-14T03:52:27.597Z,27.40
2019-04-14T03:54:48.067Z,25.82
2019-04-14T03:56:56.016Z,25.15
2019-04-14T03:59:26.111Z,26.68
2019-04-14T04:01:56.612Z,25.60
2019-04-14T04:04:27.482Z,26.25
2019-04-14T04:06:57.536Z,26.07
2019-04-14T04:09:34.367Z,25.15
2019-04-14T04:12:05.176Z,23.75
2019-04-14T04:14:35.684Z,24.37
2019-04-14T04:17:18.989Z,23.32
2019-04-14T04:19:59.915Z,23.18
2019-04-14T04:22:47.653Z,23.30
2019-04-14T04:25:31.165Z,24.50
2019-04-14T04:28:25.707Z,24.43
2019-04-14T04:31:00.430Z,23.20
2019-04-14T04:33:37.291Z,24.23
2019-04-14T04:36:14.683Z,23.47
2019-04-14T04:38:57.455Z,24.67
2019-04-14T04:41:27.535Z,22.45
2019-04-14T04:43:58.184Z,24.32
2019-04-14T04:46:28.770Z,22.75
2019-04-14T04:49:08.199Z,23.65
2019-04-14T04:51:29.626Z,24.47
2019-04-14T04:53:59.443Z,25.35
2019-04-14T04:56:29.747Z,23.42
2019-04-14T04:58:59.623Z,22.60
2019-04-14T05:01:29.589Z,24.18
2019-04-14T05:04:00.330Z,24.10
2019-04-14T05:07:07.848Z,23.90
2019-04-14T05:10:08.882Z,22.87
2019-04-14T05:12:45.684Z,22.82
2019-04-14T05:15:34.312Z,21.10
2019-04-14T05:18:04.962Z,21.37
2019-04-14T05:20:35.557Z,21.30
2019-04-14T05:23:05.932Z,21.52
2019-04-14T05:25:36.557Z,21.62
2019-04-14T05:28:06.948Z,19.07
2019-04-14T05:30:37.179Z,22.05
2019-04-14T05:33:07.458Z,23.38
2019-04-14T05:35:38.009Z,21.85
2019-04-14T05:38:08.456Z,20.60
2019-04-14T05:40:38.575Z,20.60
2019-04-14T05:43:08.877Z,18.85
2019-04-14T05:45:39.538Z,19.20
2019-04-14T05:48:09.799Z,19.75
2019-04-14T05:50:40.085Z,19.98
2019-04-14T05:53:10.983Z,21.87
2019-04-14T05:55:41.626Z,18.10
2019-04-14T05:58:12.195Z,18.17
2019-04-14T06:00:44.673Z,17.95
2019-04-14T06:03:14.589Z,17.25
2019-04-14T06:05:45.050Z,19.65
2019-04-14T06:08:14.731Z,18.20
2019-04-14T06:10:44.236Z,17.62
2019-04-14T06:13:13.852Z,15.43
2019-04-14T06:15:43.401Z,18.75
2019-04-14T06:18:13.054Z,18.12
2019-04-14T06:20:42.615Z,17.95
2019-04-14T06:23:12.207Z,18.07
2019-04-14T06:25:41.780Z,18.10
2019-04-14T06:28:11.386Z,15.08
2019-04-14T06:30:58.245Z,15.68
2019-04-14T06:33:55.880Z,16.20
2019-04-14T06:36:44.291Z,16.37
2019-04-14T06:39:23.024Z,17.90
2019-04-14T06:41:52.604Z,17.25
2019-04-14T06:44:22.492Z,16.55
2019-04-14T06:46:52.090Z,16.17
2019-04-14T06:49:21.780Z,16.73
2019-04-14T06:51:51.857Z,14.50
2019-04-14T06:54:21.404Z,16.23
2019-04-14T06:56:51.300Z,17.57
2019-04-14T06:59:20.884Z,15.75
2019-04-14T07:01:50.537Z,16.25
2019-04-14T07:04:20.103Z,16.32
2019-04-14T07:06:51.408Z,14.68
2019-04-14T07:09:21.361Z,17.45
2019-04-14T07:11:51.182Z,15.80
2019-04-14T07:14:20.748Z,16.57
2019-04-14T07:16:51.485Z,14.25
2019-04-14T07:19:21.127Z,16.45
2019-04-14T07:21:50.750Z,15.10
2019-04-14T07:24:20.712Z,16.62
2019-04-14T07:26:50.289Z,15.88
2019-04-14T07:29:19.863Z,16.67
2019-04-14T07:32:08.363Z,17.35
2019-04-14T07:35:05.948Z,16.67
2019-04-14T07:37:50.336Z,18.17
2019-04-14T07:40:28.745Z,16.10
2019-04-14T07:43:08.446Z,15.72
2019-04-14T07:46:12.211Z,17.17
2019-04-14T07:48:53.726Z,16.30
2019-04-14T07:51:37.528Z,14.60
2019-04-14T07:54:28.751Z,15.23
2019-04-14T07:57:09.540Z,14.38
2019-04-14T07:59:50.242Z,14.78
2019-04-14T08:02:38.864Z,14.73
2019-04-14T08:05:14.531Z,16.10
2019-04-14T08:07:44.794Z,16.48
2019-04-14T08:10:14.463Z,15.30
2019-04-14T08:12:44.106Z,14.83
2019-04-14T08:15:14.184Z,17.00
2019-04-14T08:17:44.056Z,16.62
2019-04-14T08:20:26.463Z,16.25
2019-04-14T08:22:45.452Z,16.02
2019-04-14T08:25:15.371Z,14.50
2019-04-14T08:27:44.998Z,15.30
2019-04-14T08:30:14.851Z,15.50
2019-04-14T08:32:44.477Z,16.00
2019-04-14T08:35:14.040Z,16.20
2019-04-14T08:37:43.643Z,16.48
2019-04-14T08:40:13.298Z,14.78
2019-04-14T08:43:01.810Z,16.45
2019-04-14T08:45:40.226Z,16.90
2019-04-14T08:48:18.857Z,15.53
2019-04-14T08:51:07.581Z,15.50
2019-04-14T08:53:47.412Z,16.77
2019-04-14T08:56:37.942Z,14.23
2019-04-14T08:59:26.730Z,14.78
2019-04-14T09:02:12.133Z,17.40
2019-04-14T09:04:47.774Z,17.85
2019-04-14T09:07:36.247Z,15.55
2019-04-14T09:10:09.424Z,15.55
2019-04-14T09:12:40.448Z,18.80
2019-04-14T09:15:10.260Z,17.35
2019-04-14T09:17:39.911Z,17.40
2019-04-14T09:20:09.529Z,17.50
2019-04-14T09:22:39.143Z,20.08
2019-04-14T09:25:08.784Z,18.57
2019-04-14T09:27:38.405Z,18.25
2019-04-14T09:30:08.645Z,17.80
2019-04-14T09:32:38.271Z,16.42
2019-04-14T09:35:08.179Z,17.32
2019-04-14T09:37:37.815Z,16.40
2019-04-14T09:40:07.771Z,15.35
2019-04-14T09:42:37.660Z,16.73
2019-04-14T09:45:07.827Z,16.73
2019-04-14T09:47:37.419Z,15.88
2019-04-14T09:50:07.126Z,17.20
2019-04-14T09:52:37.024Z,15.93
2019-04-14T09:55:07.083Z,15.90
2019-04-14T09:57:36.700Z,16.42
2019-04-14T10:00:08.366Z,16.70
2019-04-14T10:02:38.048Z,15.28
2019-04-14T10:05:07.837Z,15.48
2019-04-14T10:07:37.504Z,15.18
2019-04-14T10:10:07.279Z,14.65
2019-04-14T10:12:37.406Z,16.90
2019-04-14T10:15:10.636Z,16.35
2019-04-14T10:17:40.261Z,17.00
2019-04-14T10:20:09.951Z,14.25
2019-04-14T10:22:39.612Z,16.90
2019-04-14T10:25:09.346Z,14.68
2019-04-14T10:27:39.003Z,15.38
2019-04-14T10:30:09.796Z,16.50
2019-04-14T10:32:39.429Z,15.98
2019-04-14T10:35:09.732Z,17.65
2019-04-14T10:37:39.393Z,16.67
2019-04-14T10:40:09.230Z,17.50
2019-04-14T10:42:38.846Z,16.10
2019-04-14T10:45:08.403Z,16.52
2019-04-14T10:47:38.009Z,16.90
2019-04-14T10:50:07.932Z,16.57
2019-04-14T10:52:37.590Z,17.40
2019-04-14T10:55:07.391Z,17.50
2019-04-14T10:57:37.319Z,17.25
2019-04-14T11:00:09.791Z,16.50
2019-04-14T11:02:39.682Z,17.12
2019-04-14T11:05:09.382Z,17.80
2019-04-14T11:07:38.917Z,16.48
2019-04-14T11:10:09.036Z,17.67
2019-04-14T11:12:38.606Z,17.90
2019-04-14T11:15:08.722Z,18.65
2019-04-14T11:17:38.282Z,15.63
2019-04-14T11:20:08.114Z,15.40
2019-04-14T11:22:37.666Z,15.60
2019-04-14T11:25:10.419Z,15.00
2019-04-14T11:27:43.023Z,16.55
2019-04-14T11:30:16.224Z,16.52
2019-04-14T11:32:54.029Z,16.75
2019-04-14T11:35:45.704Z,16.20
2019-04-14T11:38:28.036Z,17.12
2019-04-14T11:40:59.942Z,17.35
2019-04-14T11:43:29.539Z,15.78
2019-04-14T11:45:59.081Z,16.35
2019-04-14T11:48:28.689Z,16.55
2019-04-14T11:50:58.536Z,16.50
2019-04-14T11:53:28.150Z,15.95
2019-04-14T11:55:57.715Z,17.42
2019-04-14T11:58:29.114Z,16.57
2019-04-14T12:01:17.393Z,17.10
2019-04-14T12:04:18.060Z,16.75
2019-04-14T12:07:02.413Z,14.78
2019-04-14T12:09:44.067Z,15.80
2019-04-14T12:12:13.988Z,15.95
2019-04-14T12:14:43.561Z,15.53
2019-04-14T12:17:13.189Z,16.27
2019-04-14T12:19:43.036Z,15.40
2019-04-14T12:22:12.621Z,16.40
2019-04-14T12:24:42.288Z,17.15
2019-04-14T12:27:11.881Z,15.38
2019-04-14T12:29:43.368Z,13.98
2019-04-14T12:32:14.970Z,14.70
2019-04-14T12:34:44.686Z,14.28
2019-04-14T12:37:14.294Z,15.40
2019-04-14T12:39:44.202Z,14.38
2019-04-14T12:42:38.594Z,16.20
2019-04-14T12:45:26.949Z,14.65
2019-04-14T12:48:27.316Z,16.45
2019-04-14T12:51:09.412Z,16.15
2019-04-14T12:53:39.028Z,14.43
2019-04-14T12:56:08.600Z,14.20
2019-04-14T12:58:49.587Z,14.58
2019-04-14T13:01:19.760Z,15.08
2019-04-14T13:03:49.395Z,16.97
2019-04-14T13:06:18.978Z,16.25
2019-04-14T13:08:48.584Z,16.57
2019-04-14T13:11:18.416Z,14.70
2019-04-14T13:13:48.070Z,14.30
2019-04-14T13:16:18.036Z,14.63
2019-04-14T13:18:47.895Z,14.35
2019-04-14T13:21:17.485Z,15.50
2019-04-14T13:23:47.357Z,15.03
2019-04-14T13:26:16.968Z,15.00
2019-04-14T13:28:46.814Z,15.80
2019-04-14T13:31:16.449Z,15.35
2019-04-14T13:33:46.062Z,14.43
2019-04-14T13:36:15.665Z,15.90
2019-04-14T13:38:45.248Z,16.25
2019-04-14T13:41:14.807Z,15.10
2019-04-14T13:43:44.409Z,15.25
2019-04-14T13:46:14.286Z,15.75
2019-04-14T13:48:44.127Z,14.53
2019-04-14T13:51:13.766Z,14.68
2019-04-14T13:53:43.430Z,14.80
2019-04-14T13:56:13.029Z,14.50
2019-04-14T13:58:42.841Z,15.80
2019-04-14T14:01:12.415Z,14.38
2019-04-14T14:03:42.018Z,16.23
2019-04-14T14:06:11.564Z,16.37
2019-04-14T14:08:41.246Z,15.35
2019-04-14T14:11:19.215Z,14.45
2019-04-14T14:13:57.799Z,14.40
2019-04-14T14:16:53.718Z,16.25
2019-04-14T14:19:27.669Z,15.50
2019-04-14T14:22:10.847Z,16.90
2019-04-14T14:24:49.695Z,14.13
2019-04-14T14:27:19.290Z,16.12
2019-04-14T14:29:48.903Z,14.60
2019-04-14T14:32:30.640Z,15.30
2019-04-14T14:35:00.213Z,15.80
2019-04-14T14:37:29.837Z,14.87
2019-04-14T14:39:59.448Z,13.75
2019-04-14T14:42:29.040Z,15.05
2019-04-14T14:45:17.595Z,13.48
2019-04-14T14:47:55.572Z,13.88
2019-04-14T14:50:31.933Z,13.28
2019-04-14T14:53:11.558Z,13.15
2019-04-14T14:55:32.753Z,12.23
2019-04-14T14:58:02.639Z,13.55
2019-04-14T15:00:35.513Z,16.65
2019-04-14T15:03:05.168Z,14.28
2019-04-14T15:05:34.739Z,14.00
2019-04-14T15:08:04.341Z,23.42
2019-04-14T15:10:33.946Z,14.40
2019-04-14T15:13:03.544Z,13.18
2019-04-14T15:15:33.132Z,13.13
2019-04-14T15:18:02.779Z,13.25
2019-04-14T15:20:32.443Z,12.10
2019-04-14T15:23:02.314Z,11.40
2019-04-14T15:25:32.252Z,10.25
2019-04-14T15:28:01.828Z,10.18
2019-04-14T15:30:31.409Z,10.50
2019-04-14T15:33:00.969Z,11.18
2019-04-14T15:35:30.864Z,10.20
2019-04-14T15:38:00.475Z,10.13
2019-04-14T15:40:30.272Z,10.15
2019-04-14T15:42:59.918Z,10.60
2019-04-14T15:45:29.811Z,11.25
2019-04-14T15:47:59.445Z,11.80
2019-04-14T15:50:29.062Z,10.35
2019-04-14T15:52:58.660Z,10.85
2019-04-14T15:55:28.575Z,10.82
2019-04-14T15:58:03.830Z,10.63
2019-04-14T16:00:50.965Z,10.75
2019-04-14T16:03:39.483Z,10.63
2019-04-14T16:06:37.176Z,9.45
2019-04-14T16:09:20.201Z,10.08
2019-04-14T16:12:14.883Z,10.63
2019-04-14T16:14:53.296Z,10.10
2019-04-14T16:17:47.875Z,9.98
2019-04-14T16:20:20.807Z,9.85
2019-04-14T16:22:50.381Z,11.35
2019-04-14T16:25:20.938Z,9.05
2019-04-14T16:28:09.698Z,9.40
2019-04-14T16:30:56.782Z,8.70
2019-04-14T16:33:31.379Z,8.23
2019-04-14T16:36:01.196Z,8.88
2019-04-14T16:38:30.846Z,8.88
2019-04-14T16:41:00.499Z,9.00
2019-04-14T16:43:30.092Z,7.72
2019-04-14T16:45:59.670Z,7.42
2019-04-14T16:48:29.259Z,7.50
2019-04-14T16:50:59.957Z,6.50
2019-04-14T16:53:32.284Z,7.20
2019-04-14T16:56:35.743Z,7.10
2019-04-14T16:59:09.016Z,6.75
2019-04-14T17:01:40.803Z,7.42
2019-04-14T17:04:10.771Z,5.80
2019-04-14T17:06:40.326Z,5.25
2019-04-14T17:09:10.388Z,5.85
2019-04-14T17:11:39.960Z,5.95
2019-04-14T17:14:14.833Z,5.78
2019-04-14T17:17:06.351Z,6.10
2019-04-14T17:19:43.385Z,6.47
2019-04-14T17:22:40.936Z,6.33
2019-04-14T17:25:25.259Z,7.00
2019-04-14T17:28:16.964Z,5.75
2019-04-14T17:30:56.340Z,5.85
2019-04-14T17:33:44.865Z,5.90
2019-04-14T17:36:42.188Z,6.47
2019-04-14T17:39:33.740Z,6.20
2019-04-14T17:42:17.640Z,6.00
2019-04-14T17:45:06.188Z,5.60
2019-04-14T17:47:55.182Z,5.10
2019-04-14T17:50:46.390Z,4.80
2019-04-14T17:53:37.915Z,5.50
2019-04-14T17:56:17.801Z,6.30
2019-04-14T17:59:06.332Z,4.87
2019-04-14T18:01:54.822Z,5.45
2019-04-14T18:04:45.529Z,5.35
2019-04-14T18:07:32.651Z,5.10
2019-04-14T18:10:21.154Z,5.05
2019-04-14T18:13:05.967Z,4.83
2019-04-14T18:16:03.545Z,4.95
2019-04-14T18:19:04.210Z,4.75
2019-04-14T18:21:33.818Z,5.17
2019-04-14T18:24:03.709Z,4.35
2019-04-14T18:26:33.338Z,5.00
2019-04-14T18:29:20.574Z,4.97
2019-04-14T18:32:05.415Z,6.53
2019-04-14T18:34:59.712Z,5.78
2019-04-14T18:37:43.643Z,5.87
2019-04-14T18:40:17.220Z,5.78
2019-04-14T18:42:56.000Z,6.00
2019-04-14T18:45:32.368Z,6.55
2019-04-14T18:48:16.275Z,6.35
2019-04-14T18:51:10.570Z,5.95
2019-04-14T18:54:02.386Z,6.30
2019-04-14T18:56:49.185Z,7.58
2019-04-14T18:59:32.143Z,7.17
2019-04-14T19:02:01.965Z,7.55
2019-04-14T19:04:33.420Z,8.65
2019-04-14T19:07:03.000Z,8.40
2019-04-14T19:09:32.890Z,8.93
2019-04-14T19:12:21.482Z,8.40
2019-04-14T19:14:54.620Z,9.60
2019-04-14T19:17:45.903Z,10.03
2019-04-14T19:20:16.737Z,10.60
2019-04-14T19:22:46.377Z,9.20
2019-04-14T19:25:16.232Z,11.03
2019-04-14T19:27:46.101Z,10.85
2019-04-14T19:30:15.862Z,11.08
2019-04-14T19:32:45.468Z,11.12
2019-04-14T19:35:15.016Z,10.88
2019-04-14T19:37:44.890Z,11.33
2019-04-14T19:40:14.548Z,10.98
2019-04-14T19:42:44.140Z,10.80
2019-04-14T19:45:16.291Z,13.70
2019-04-14T19:47:45.871Z,11.22
2019-04-14T19:50:15.721Z,11.30
2019-04-14T19:52:45.349Z,11.50
2019-04-14T19:55:20.709Z,12.18
2019-04-14T19:57:46.136Z,13.93
2019-04-14T20:00:15.981Z,11.70
2019-04-14T20:02:45.511Z,13.65
2019-04-14T20:05:15.408Z,11.25
2019-04-14T20:07:44.944Z,12.33
2019-04-14T20:10:14.757Z,13.13
2019-04-14T20:12:44.374Z,12.45
2019-04-14T20:15:16.798Z,12.15
2019-04-14T20:18:17.388Z,11.73
2019-04-14T20:21:02.151Z,13.53
2019-04-14T20:23:45.036Z,13.53
2019-04-14T20:26:48.678Z,14.25
2019-04-14T20:29:27.659Z,13.03
2019-04-14T20:32:16.247Z,13.85
2019-04-14T20:34:45.888Z,13.05
2019-04-14T20:37:15.557Z,13.72
2019-04-14T20:39:45.674Z,13.98
2019-04-14T20:42:15.355Z,14.43
2019-04-14T20:44:45.137Z,14.90
2019-04-14T20:47:14.904Z,14.18
2019-04-14T20:49:44.437Z,15.40
2019-04-14T20:52:14.307Z,16.12
2019-04-14T20:54:43.922Z,14.68
2019-04-14T20:57:13.764Z,15.32
2019-04-14T20:59:43.314Z,16.50
2019-04-14T21:02:41.194Z,16.60
2019-04-14T21:05:29.803Z,15.05
2019-04-14T21:08:30.329Z,16.55
2019-04-14T21:11:07.107Z,15.45
2019-04-14T21:14:01.424Z,16.10
2019-04-14T21:16:44.687Z,16.87
2019-04-14T21:19:21.248Z,19.02
2019-04-14T21:22:12.758Z,17.07
2019-04-14T21:25:07.208Z,16.02
2019-04-14T21:28:01.456Z,15.43
2019-04-14T21:30:55.879Z,16.32
2019-04-14T21:33:53.308Z,16.67
2019-04-14T21:36:30.587Z,17.37
2019-04-14T21:39:14.525Z,17.62
2019-04-14T21:41:45.598Z,19.92
2019-04-14T21:44:15.166Z,19.50
2019-04-14T21:46:44.730Z,19.00
2019-04-14T21:49:14.290Z,21.00
2019-04-14T21:52:06.223Z,20.80
2019-04-14T21:54:35.845Z,22.67
2019-04-14T21:57:32.238Z,20.55
2019-04-14T22:00:23.548Z,21.45
2019-04-14T22:03:10.438Z,21.33
2019-04-14T22:05:49.077Z,19.25
2019-04-14T22:08:25.152Z,19.45
2019-04-14T22:11:00.005Z,21.37
2019-04-14T22:13:29.573Z,21.50
2019-04-14T22:15:59.375Z,21.42
2019-04-14T22:18:28.931Z,22.15
2019-04-14T22:20:58.530Z,21.33
2019-04-14T22:23:28.388Z,22.62
2019-04-14T22:25:58.200Z,21.23
2019-04-14T22:28:27.917Z,24.10
2019-04-14T22:30:57.525Z,22.45
2019-04-14T22:33:27.126Z,23.20
2019-04-14T22:35:56.803Z,21.95
2019-04-14T22:38:26.954Z,24.02
2019-04-14T22:40:56.798Z,22.25
2019-04-14T22:43:26.380Z,23.38
2019-04-14T22:45:55.964Z,22.87
2019-04-14T22:48:25.529Z,24.57
2019-04-14T22:50:55.140Z,25.40
2019-04-14T22:53:24.676Z,23.35
2019-04-14T22:55:54.633Z,23.90
2019-04-14T22:58:24.207Z,23.10
2019-04-14T23:01:12.727Z,23.62
2019-04-14T23:04:04.228Z,22.95
2019-04-14T23:06:52.728Z,22.93
2019-04-14T23:09:29.871Z,23.70
2019-04-14T23:12:36.573Z,23.45
2019-04-14T23:15:18.572Z,22.98
2019-04-14T23:18:13.146Z,25.88
2019-04-14T23:20:55.879Z,23.77
2019-04-14T23:23:44.366Z,24.77
2019-04-14T23:26:13.934Z,22.50
2019-04-14T23:28:44.088Z,24.47
2019-04-14T23:31:13.638Z,23.18
2019-04-14T23:33:43.280Z,24.37
2019-04-14T23:36:12.826Z,23.70
2019-04-14T23:38:42.437Z,24.45
2019-04-14T23:41:12.025Z,23.55
2019-04-14T23:43:41.637Z,26.33
2019-04-14T23:46:11.224Z,24.40
2019-04-14T23:48:40.813Z,25.30
2019-04-14T23:51:11.431Z,24.75
2019-04-14T23:53:41.039Z,22.85
2019-04-14T23:56:10.872Z,22.62
2019-04-14T23:58:40.460Z,24.87
